Time;durP1;ratioP1;P1;durP2;ratioP2;P2;SDS_P1;SDS_P2;PMS_P1;PMS_P2;Temp;Humidity;BMP_temperature;BMP_pressure;BME280_temperature;BME280_humidity;BME280_pressure;Samples;Min_cycle;Max_cycle;Signal;HPM_P1;HPM_P2
2022/11/08 00:03:52;;;;;;;48.20;34.03;;;;;;;;;;5004601;28;20873;-36
2022/11/08 00:14:33;;;;;;;45.17;32.77;;;;;;;;;;5003798;28;20504;-36
2022/11/08 00:16:59;;;;;;;46.47;32.97;;;;;;;;;;5006536;28;20428;-35
2022/11/08 00:19:25;;;;;;;51.70;37.10;;;;;;;;;;5010999;28;20945;-36
2022/11/08 00:21:51;;;;;;;47.27;35.17;;;;;;;;;;5010497;28;20434;-36
2022/11/08 00:24:17;;;;;;;46.03;33.17;;;;;;;;;;5008927;28;20184;-35
2022/11/08 00:26:43;;;;;;;41.07;33.07;;;;;;;;;;5003750;28;20446;-35
2022/11/08 00:29:09;;;;;;;42.77;32.47;;;;;;;;;;5004409;28;20809;-36
2022/11/08 00:31:35;;;;;;;46.07;34.37;;;;;;;;;;5011577;28;20194;-35
2022/11/08 00:34:01;;;;;;;51.50;34.77;;;;;;;;;;5006607;28;20180;-36
2022/11/08 00:36:27;;;;;;;48.07;37.03;;;;;;;;;;5004957;28;20419;-36
2022/11/08 00:38:53;;;;;;;50.23;36.10;;;;;;;;;;5010856;28;20434;-36
2022/11/08 00:41:19;;;;;;;44.97;34.07;;;;;;;;;;5004546;28;21004;-35
2022/11/08 00:43:45;;;;;;;53.73;37.57;;;;;;;;;;5010934;28;20183;-36
2022/11/08 00:46:12;;;;;;;48.50;36.03;;;;;;;;;;5007528;28;20175;-36
2022/11/08 00:48:38;;;;;;;52.30;37.93;;;;;;;;;;5002682;28;20207;-36
2022/11/08 00:51:05;;;;;;;55.70;42.17;;;;;;;;;;5007682;28;21374;-36
2022/11/08 00:53:31;;;;;;;56.33;41.67;;;;;;;;;;5009600;28;20422;-35
2022/11/08 00:56:01;;;;;;;56.30;41.13;;;;;;;;;;5004728;28;20985;-36
2022/11/08 00:58:27;;;;;;;60.10;44.17;;;;;;;;;;5008215;28;20188;-35
2022/11/08 01:00:53;;;;;;;58.93;43.67;;;;;;;;;;5003953;28;20457;-36
2022/11/08 01:03:20;;;;;;;59.43;43.90;;;;;;;;;;5004848;28;20950;-36
2022/11/08 01:05:49;;;;;;;65.93;49.80;;;;;;;;;;5006976;28;20998;-35
2022/11/08 01:08:16;;;;;;;64.23;50.00;;;;;;;;;;5004424;28;21459;-36
2022/11/08 01:10:43;;;;;;;63.80;47.10;;;;;;;;;;5009815;28;20431;-36
2022/11/08 01:13:10;;;;;;;62.93;48.20;;;;;;;;;;5009244;28;20923;-35
2022/11/08 01:15:37;;;;;;;67.87;52.57;;;;;;;;;;5004650;28;20211;-36
2022/11/08 01:18:04;;;;;;;62.30;47.63;;;;;;;;;;5026270;28;20360;-36
2022/11/08 01:20:30;;;;;;;65.27;50.53;;;;;;;;;;5027852;28;20454;-36
2022/11/08 01:22:56;;;;;;;67.77;50.70;;;;;;;;;;5031089;28;20421;-35
2022/11/08 01:25:22;;;;;;;64.40;49.07;;;;;;;;;;5030313;28;20738;-36
2022/11/08 01:27:49;;;;;;;63.63;46.70;;;;;;;;;;5027347;28;20258;-36
2022/11/08 01:30:16;;;;;;;62.40;47.93;;;;;;;;;;5023069;28;20260;-36
2022/11/08 01:32:42;;;;;;;64.27;48.63;;;;;;;;;;5024698;28;20426;-36
2022/11/08 01:35:08;;;;;;;67.83;49.13;;;;;;;;;;5023631;28;20522;-36
2022/11/08 01:37:34;;;;;;;60.47;45.50;;;;;;;;;;5034250;28;20815;-35
2022/11/08 01:40:00;;;;;;;65.73;46.30;;;;;;;;;;5008630;28;21063;-35
2022/11/08 01:42:27;;;;;;;62.07;46.73;;;;;;;;;;5024628;28;20171;-35
2022/11/08 01:45:01;;;;;;;71.43;52.50;;;;;;;;;;5028671;28;21294;-36
2022/11/08 01:47:27;;;;;;;73.60;54.13;;;;;;;;;;5033495;28;21083;-36
2022/11/08 01:49:56;;;;;;;70.37;54.30;;;;;;;;;;5030274;28;20948;-36
2022/11/08 01:52:36;;;;;;;64.30;50.27;;;;;;;;;;5024703;28;21566;-36
2022/11/08 01:55:02;;;;;;;66.73;51.20;;;;;;;;;;5028576;28;20549;-36
2022/11/08 01:57:34;;;;;;;69.13;51.20;;;;;;;;;;5028279;28;20881;-35
2022/11/08 02:00:04;;;;;;;70.47;52.10;;;;;;;;;;5027808;28;20175;-35
2022/11/08 02:02:30;;;;;;;76.27;55.77;;;;;;;;;;5029011;28;20797;-36
2022/11/08 02:04:56;;;;;;;72.83;55.23;;;;;;;;;;5025684;28;20925;-36
2022/11/08 02:07:22;;;;;;;68.70;52.70;;;;;;;;;;5027141;28;20433;-36
2022/11/08 02:09:48;;;;;;;79.47;57.43;;;;;;;;;;5029251;28;20195;-35
2022/11/08 02:12:15;;;;;;;67.03;51.30;;;;;;;;;;5032107;28;20413;-36
2022/11/08 02:14:41;;;;;;;69.23;49.83;;;;;;;;;;5028538;28;20424;-36
2022/11/08 02:17:08;;;;;;;66.07;48.07;;;;;;;;;;5024881;28;20611;-36
2022/11/08 02:19:34;;;;;;;61.20;46.60;;;;;;;;;;5024427;28;20445;-36
2022/11/08 02:22:03;;;;;;;61.50;45.43;;;;;;;;;;5033318;28;20447;-36
2022/11/08 02:24:30;;;;;;;60.33;43.93;;;;;;;;;;5030966;28;20574;-36
2022/11/08 02:26:56;;;;;;;54.27;40.00;;;;;;;;;;5027183;28;21149;-36
2022/11/08 02:29:30;;;;;;;52.67;38.70;;;;;;;;;;5023472;28;21003;-36
2022/11/08 02:31:57;;;;;;;50.90;38.67;;;;;;;;;;5027655;28;20420;-36
2022/11/08 02:34:25;;;;;;;54.53;41.33;;;;;;;;;;5027328;28;21034;-36
2022/11/08 02:36:51;;;;;;;52.70;39.83;;;;;;;;;;5024931;28;20784;-36
2022/11/08 02:39:17;;;;;;;52.87;39.13;;;;;;;;;;5023146;28;20425;-36
2022/11/08 02:41:43;;;;;;;53.73;38.30;;;;;;;;;;5024270;28;21212;-36
2022/11/08 02:44:09;;;;;;;56.33;40.63;;;;;;;;;;5024705;28;20441;-36
2022/11/08 02:46:35;;;;;;;54.80;41.07;;;;;;;;;;5023260;28;21214;-36
2022/11/08 02:49:01;;;;;;;53.67;40.50;;;;;;;;;;5025032;28;20453;-36
2022/11/08 02:51:28;;;;;;;57.43;40.10;;;;;;;;;;5022818;28;20849;-36
2022/11/08 02:53:54;;;;;;;51.50;37.50;;;;;;;;;;5023776;28;20425;-35
2022/11/08 02:56:20;;;;;;;52.40;38.33;;;;;;;;;;5024723;28;21786;-36
2022/11/08 02:58:46;;;;;;;53.43;39.80;;;;;;;;;;5024972;28;20434;-36
2022/11/08 03:01:12;;;;;;;54.20;39.47;;;;;;;;;;5022557;28;20427;-36
2022/11/08 03:03:38;;;;;;;53.70;37.83;;;;;;;;;;5020181;28;20444;-36
2022/11/08 03:06:04;;;;;;;51.73;37.43;;;;;;;;;;5026196;28;20432;-36
2022/11/08 03:08:30;;;;;;;56.97;39.83;;;;;;;;;;5029615;28;21290;-36
2022/11/08 03:10:58;;;;;;;56.73;41.33;;;;;;;;;;5031630;28;20940;-36
2022/11/08 03:13:24;;;;;;;58.80;41.73;;;;;;;;;;5028255;28;20449;-36
2022/11/08 03:15:50;;;;;;;57.47;41.10;;;;;;;;;;5027588;28;20433;-36
2022/11/08 03:18:16;;;;;;;52.33;38.27;;;;;;;;;;5026529;28;20948;-36
2022/11/08 03:20:43;;;;;;;56.60;39.07;;;;;;;;;;5030328;28;21306;-36
2022/11/08 03:23:09;;;;;;;52.60;38.77;;;;;;;;;;5031990;28;20946;-35
2022/11/08 03:25:35;;;;;;;48.13;35.53;;;;;;;;;;5031482;28;20510;-35
2022/11/08 03:28:02;;;;;;;49.20;35.93;;;;;;;;;;5034683;28;20560;-36
2022/11/08 03:30:28;;;;;;;50.90;37.37;;;;;;;;;;5030383;28;20545;-36
2022/11/08 03:32:54;;;;;;;44.57;33.77;;;;;;;;;;5030998;28;20436;-36
2022/11/08 03:35:21;;;;;;;51.70;36.43;;;;;;;;;;5028633;28;20433;-36
2022/11/08 03:37:53;;;;;;;52.80;39.43;;;;;;;;;;5029399;28;20657;-36
2022/11/08 03:40:20;;;;;;;51.70;36.87;;;;;;;;;;5037208;28;20528;-36
2022/11/08 03:42:46;;;;;;;54.03;36.20;;;;;;;;;;5035326;28;20433;-35
2022/11/08 03:45:13;;;;;;;45.83;33.00;;;;;;;;;;5030907;28;20872;-36
2022/11/08 03:47:40;;;;;;;47.20;34.47;;;;;;;;;;5027795;28;20516;-36
2022/11/08 03:50:07;;;;;;;47.53;36.07;;;;;;;;;;5032039;28;20430;-36
2022/11/08 03:52:59;;;;;;;45.73;34.13;;;;;;;;;;5028045;28;20508;-36
2022/11/08 03:55:26;;;;;;;49.67;35.17;;;;;;;;;;5028477;28;20684;-36
2022/11/08 03:57:52;;;;;;;47.37;33.57;;;;;;;;;;5030439;28;20455;-36
2022/11/08 04:00:20;;;;;;;45.70;32.90;;;;;;;;;;5028163;28;20855;-36
2022/11/08 04:02:47;;;;;;;48.40;34.73;;;;;;;;;;5027897;28;20429;-35
2022/11/08 04:05:14;;;;;;;41.63;31.07;;;;;;;;;;5029671;28;20836;-36
2022/11/08 04:07:40;;;;;;;38.93;29.57;;;;;;;;;;5030440;28;20739;-36
2022/11/08 04:10:07;;;;;;;44.33;30.27;;;;;;;;;;5030170;28;20850;-36
2022/11/08 04:15:20;;;;;;;40.13;30.23;;;;;;;;;;5028937;28;20677;-35
2022/11/08 04:23:18;;;;;;;36.30;26.87;;;;;;;;;;5030393;28;20432;-36
2022/11/08 04:25:44;;;;;;;38.07;27.63;;;;;;;;;;5033009;28;21032;-36
2022/11/08 04:28:11;;;;;;;42.00;28.63;;;;;;;;;;5032149;28;20476;-36
2022/11/08 04:30:37;;;;;;;34.10;26.37;;;;;;;;;;5028420;28;20720;-35
2022/11/08 04:33:04;;;;;;;35.87;26.00;;;;;;;;;;5031812;28;20414;-36
2022/11/08 04:35:30;;;;;;;37.50;27.07;;;;;;;;;;5026688;28;20978;-36
2022/11/08 04:38:00;;;;;;;37.00;27.83;;;;;;;;;;5028601;28;20745;-36
2022/11/08 04:40:27;;;;;;;35.93;25.57;;;;;;;;;;5031820;28;20428;-36
2022/11/08 04:42:53;;;;;;;32.60;23.93;;;;;;;;;;5029129;28;20511;-36
2022/11/08 04:45:19;;;;;;;32.60;25.17;;;;;;;;;;5030474;28;21071;-36
2022/11/08 04:47:46;;;;;;;31.23;24.03;;;;;;;;;;5031218;28;21130;-36
2022/11/08 04:50:12;;;;;;;33.90;24.87;;;;;;;;;;5025645;28;20722;-36
2022/11/08 04:52:38;;;;;;;32.70;24.73;;;;;;;;;;5031114;28;20966;-36
2022/11/08 04:55:04;;;;;;;37.83;27.73;;;;;;;;;;5030803;28;20538;-36
2022/11/08 04:57:30;;;;;;;37.57;29.20;;;;;;;;;;5029249;28;21319;-36
2022/11/08 04:59:56;;;;;;;41.40;30.97;;;;;;;;;;5025546;28;20447;-36
2022/11/08 05:02:23;;;;;;;44.27;30.70;;;;;;;;;;5022095;28;20504;-36
2022/11/08 05:04:49;;;;;;;38.40;29.03;;;;;;;;;;5027435;28;20716;-36
2022/11/08 05:07:15;;;;;;;39.37;29.83;;;;;;;;;;5031951;28;21276;-35
2022/11/08 05:09:41;;;;;;;43.57;31.30;;;;;;;;;;5026016;28;20457;-36
2022/11/08 05:12:07;;;;;;;44.93;32.73;;;;;;;;;;5024740;28;21018;-36
2022/11/08 05:14:33;;;;;;;47.27;33.03;;;;;;;;;;5024696;28;20788;-36
2022/11/08 05:16:59;;;;;;;39.23;29.63;;;;;;;;;;5024993;28;20709;-35
2022/11/08 05:24:54;;;;;;;46.67;33.33;;;;;;;;;;5023354;28;20472;-36
2022/11/08 05:27:20;;;;;;;41.40;31.17;;;;;;;;;;5026507;28;21307;-36
2022/11/08 05:29:47;;;;;;;44.90;34.23;;;;;;;;;;5024689;28;20752;-36
2022/11/08 05:32:13;;;;;;;40.90;32.57;;;;;;;;;;5025623;28;20417;-36
2022/11/08 05:34:39;;;;;;;47.60;35.60;;;;;;;;;;5025619;28;20428;-36
2022/11/08 05:37:05;;;;;;;48.27;34.13;;;;;;;;;;5026309;28;21280;-36
2022/11/08 05:39:31;;;;;;;42.70;31.13;;;;;;;;;;5026431;28;20421;-36
2022/11/08 05:41:57;;;;;;;46.30;34.57;;;;;;;;;;5006276;28;20456;-35
2022/11/08 05:44:23;;;;;;;47.10;34.67;;;;;;;;;;5023669;28;21474;-36
2022/11/08 05:46:49;;;;;;;47.07;33.20;;;;;;;;;;5022846;28;21077;-36
2022/11/08 05:49:15;;;;;;;44.03;32.13;;;;;;;;;;5024378;28;21065;-36
2022/11/08 05:51:41;;;;;;;47.97;34.30;;;;;;;;;;5029193;28;20417;-36
2022/11/08 05:54:07;;;;;;;43.17;31.63;;;;;;;;;;5029297;28;21076;-36
2022/11/08 05:56:33;;;;;;;43.73;34.10;;;;;;;;;;5032245;28;20922;-36
2022/11/08 05:58:59;;;;;;;44.43;33.57;;;;;;;;;;5026378;28;20421;-36
2022/11/08 06:01:25;;;;;;;41.80;32.20;;;;;;;;;;5027263;28;20451;-36
2022/11/08 06:03:51;;;;;;;49.67;36.97;;;;;;;;;;5022903;28;20736;-36
2022/11/08 06:06:19;;;;;;;50.70;38.10;;;;;;;;;;5027252;28;20460;-36
2022/11/08 06:08:45;;;;;;;50.87;38.27;;;;;;;;;;5026841;28;20456;-35
2022/11/08 06:11:12;;;;;;;55.80;40.87;;;;;;;;;;5021064;28;20656;-36
2022/11/08 06:13:39;;;;;;;48.50;36.40;;;;;;;;;;5022163;28;20842;-35
2022/11/08 06:16:06;;;;;;;51.03;37.03;;;;;;;;;;5019322;28;20428;-36
2022/11/08 06:18:33;;;;;;;59.83;42.37;;;;;;;;;;5023453;28;20433;-36
2022/11/08 06:21:00;;;;;;;48.97;36.43;;;;;;;;;;5025111;28;20464;-35
2022/11/08 06:23:26;;;;;;;55.77;37.33;;;;;;;;;;5018801;28;20434;-36
2022/11/08 06:25:52;;;;;;;55.20;40.87;;;;;;;;;;5026263;28;20441;-36
2022/11/08 06:28:19;;;;;;;61.20;46.43;;;;;;;;;;5024961;28;20465;-36
2022/11/08 06:30:45;;;;;;;64.53;47.30;;;;;;;;;;5025730;28;20412;-36
2022/11/08 06:33:11;;;;;;;71.47;54.97;;;;;;;;;;5027976;28;20421;-36
2022/11/08 06:35:37;;;;;;;76.47;55.80;;;;;;;;;;5031089;28;20421;-36
2022/11/08 06:38:03;;;;;;;77.40;56.70;;;;;;;;;;5027537;28;20418;-36
2022/11/08 06:40:31;;;;;;;72.13;52.43;;;;;;;;;;5024509;28;20764;-36
2022/11/08 06:42:57;;;;;;;72.87;53.30;;;;;;;;;;5028564;28;20512;-36
2022/11/08 06:45:24;;;;;;;64.40;46.60;;;;;;;;;;5030981;28;20437;-36
2022/11/08 06:47:55;;;;;;;57.67;43.13;;;;;;;;;;5030434;28;21318;-36
2022/11/08 06:50:21;;;;;;;60.33;42.60;;;;;;;;;;5028699;28;20859;-36
2022/11/08 06:52:47;;;;;;;57.37;40.67;;;;;;;;;;5028982;28;20514;-36
2022/11/08 06:55:14;;;;;;;57.13;39.27;;;;;;;;;;5028872;28;20970;-36
2022/11/08 06:57:40;;;;;;;61.20;42.40;;;;;;;;;;5023366;28;20872;-36
2022/11/08 07:00:06;;;;;;;53.30;40.20;;;;;;;;;;5026428;28;20843;-36
2022/11/08 07:02:32;;;;;;;56.13;40.10;;;;;;;;;;5028524;28;20414;-36
2022/11/08 07:04:58;;;;;;;52.13;39.67;;;;;;;;;;5028573;28;20421;-36
2022/11/08 07:07:25;;;;;;;58.60;42.00;;;;;;;;;;5027150;28;20510;-36
2022/11/08 07:09:51;;;;;;;52.30;38.50;;;;;;;;;;5029220;28;20457;-36
2022/11/08 07:12:17;;;;;;;57.93;41.90;;;;;;;;;;5028432;28;20427;-36
2022/11/08 07:14:43;;;;;;;51.93;39.40;;;;;;;;;;5033894;28;20633;-37
2022/11/08 07:17:09;;;;;;;51.10;37.43;;;;;;;;;;5033654;28;20436;-36
2022/11/08 07:19:35;;;;;;;50.37;34.87;;;;;;;;;;5031735;28;20873;-36
2022/11/08 07:22:01;;;;;;;49.20;36.50;;;;;;;;;;5033720;28;20419;-36
2022/11/08 07:24:27;;;;;;;51.43;35.53;;;;;;;;;;5028771;28;20937;-36
2022/11/08 07:26:53;;;;;;;51.37;35.10;;;;;;;;;;5029831;28;21024;-36
2022/11/08 07:29:20;;;;;;;49.43;34.20;;;;;;;;;;5027780;28;20826;-36
2022/11/08 07:31:46;;;;;;;54.60;35.97;;;;;;;;;;5025614;28;21382;-36
2022/11/08 07:34:12;;;;;;;45.67;34.13;;;;;;;;;;5025966;28;23753;-36
2022/11/08 07:36:38;;;;;;;54.53;37.80;;;;;;;;;;5029617;28;20853;-36
2022/11/08 07:39:04;;;;;;;50.10;35.37;;;;;;;;;;5026032;28;20499;-36
2022/11/08 07:41:30;;;;;;;46.60;34.83;;;;;;;;;;5028918;28;20274;-36
2022/11/08 07:43:56;;;;;;;57.20;37.80;;;;;;;;;;5031810;28;21121;-36
2022/11/08 07:46:22;;;;;;;53.87;37.33;;;;;;;;;;5030842;28;20176;-36
2022/11/08 07:48:48;;;;;;;47.73;35.10;;;;;;;;;;5027588;28;20196;-36
2022/11/08 07:51:14;;;;;;;54.63;37.63;;;;;;;;;;5027802;28;20542;-36
2022/11/08 07:53:42;;;;;;;57.20;37.33;;;;;;;;;;5030924;28;20438;-36
2022/11/08 07:56:08;;;;;;;53.90;36.87;;;;;;;;;;5033748;28;20984;-36
2022/11/08 07:58:34;;;;;;;54.77;35.57;;;;;;;;;;5031294;28;20568;-36
2022/11/08 08:01:02;;;;;;;50.03;35.20;;;;;;;;;;5030874;28;20499;-36
2022/11/08 08:03:28;;;;;;;56.23;36.67;;;;;;;;;;5033045;28;20286;-36
2022/11/08 08:05:54;;;;;;;58.87;36.73;;;;;;;;;;5034472;28;20423;-36
2022/11/08 08:08:21;;;;;;;50.03;35.67;;;;;;;;;;5036392;28;21084;-36
2022/11/08 08:10:47;;;;;;;53.13;36.73;;;;;;;;;;5036360;28;20343;-36
2022/11/08 08:13:13;;;;;;;53.47;33.37;;;;;;;;;;5037541;28;20192;-36
2022/11/08 08:15:39;;;;;;;45.63;32.17;;;;;;;;;;5035881;28;20168;-36
2022/11/08 08:18:07;;;;;;;49.17;34.27;;;;;;;;;;5031589;28;20187;-37
2022/11/08 08:20:33;;;;;;;47.93;34.40;;;;;;;;;;5035694;28;20580;-36
2022/11/08 08:23:00;;;;;;;53.50;32.73;;;;;;;;;;5038427;28;20183;-37
2022/11/08 08:25:26;;;;;;;54.40;32.97;;;;;;;;;;5033680;28;20190;-36
2022/11/08 08:27:54;;;;;;;47.83;32.73;;;;;;;;;;5030311;28;20172;-36
2022/11/08 08:30:21;;;;;;;49.07;31.93;;;;;;;;;;5027988;28;20595;-37
2022/11/08 08:32:48;;;;;;;47.27;32.80;;;;;;;;;;5020462;28;20582;-37
2022/11/08 08:35:14;;;;;;;45.70;31.77;;;;;;;;;;5031351;28;20172;-37
2022/11/08 08:37:40;;;;;;;44.67;30.87;;;;;;;;;;5033344;28;20278;-36
2022/11/08 08:40:07;;;;;;;46.77;30.93;;;;;;;;;;5035789;28;20635;-36
2022/11/08 08:42:33;;;;;;;42.83;30.70;;;;;;;;;;5034719;28;20875;-37
2022/11/08 08:45:00;;;;;;;41.63;29.63;;;;;;;;;;5032631;28;20359;-36
2022/11/08 08:47:26;;;;;;;43.43;29.50;;;;;;;;;;5031836;28;20207;-36
2022/11/08 08:49:52;;;;;;;43.57;29.67;;;;;;;;;;5030258;28;20636;-36
2022/11/08 08:52:18;;;;;;;40.57;29.03;;;;;;;;;;5034922;28;20689;-36
2022/11/08 08:54:45;;;;;;;40.77;28.20;;;;;;;;;;5034938;28;20286;-36
2022/11/08 08:57:11;;;;;;;37.67;27.83;;;;;;;;;;5032456;28;20298;-37
2022/11/08 08:59:37;;;;;;;36.87;26.80;;;;;;;;;;5033847;28;20184;-37
2022/11/08 09:02:03;;;;;;;39.57;28.17;;;;;;;;;;5033938;28;20456;-36
2022/11/08 09:04:29;;;;;;;39.73;28.80;;;;;;;;;;5031859;28;20630;-37
2022/11/08 09:06:55;;;;;;;43.90;28.23;;;;;;;;;;5034922;28;20443;-37
2022/11/08 09:09:22;;;;;;;44.23;27.60;;;;;;;;;;5033031;28;20529;-37
2022/11/08 09:11:48;;;;;;;39.13;27.63;;;;;;;;;;5033080;28;20187;-37
2022/11/08 09:14:14;;;;;;;38.53;26.77;;;;;;;;;;5034543;28;20639;-37
2022/11/08 09:16:40;;;;;;;41.30;28.67;;;;;;;;;;5031438;28;20175;-37
2022/11/08 09:19:06;;;;;;;39.80;27.37;;;;;;;;;;5029381;28;20197;-37
2022/11/08 09:21:32;;;;;;;40.70;29.07;;;;;;;;;;5032426;28;20180;-37
2022/11/08 09:23:58;;;;;;;43.47;29.67;;;;;;;;;;5038371;28;20285;-36
2022/11/08 09:26:24;;;;;;;43.33;29.50;;;;;;;;;;5033483;28;20431;-37
2022/11/08 09:28:50;;;;;;;40.77;27.83;;;;;;;;;;5029556;28;20238;-37
2022/11/08 09:31:16;;;;;;;37.20;27.73;;;;;;;;;;5030912;28;20409;-37
2022/11/08 09:33:42;;;;;;;39.23;26.30;;;;;;;;;;5028460;28;20271;-36
2022/11/08 09:36:12;;;;;;;35.90;26.60;;;;;;;;;;5031495;28;20687;-36
2022/11/08 09:38:38;;;;;;;37.30;27.53;;;;;;;;;;5032534;28;20944;-37
2022/11/08 09:41:11;;;;;;;38.10;27.53;;;;;;;;;;5032607;28;20226;-37
2022/11/08 09:43:50;;;;;;;36.37;26.67;;;;;;;;;;5030748;28;20463;-37
2022/11/08 09:46:20;;;;;;;38.93;27.67;;;;;;;;;;5030519;28;20223;-37
2022/11/08 09:48:46;;;;;;;39.37;28.07;;;;;;;;;;5032016;28;20633;-37
2022/11/08 09:51:14;;;;;;;37.07;26.60;;;;;;;;;;5031083;28;20510;-37
2022/11/08 09:53:52;;;;;;;36.03;27.20;;;;;;;;;;5030394;28;20214;-37
2022/11/08 09:56:24;;;;;;;38.40;27.30;;;;;;;;;;5034912;28;20995;-37
2022/11/08 09:59:00;;;;;;;40.03;27.90;;;;;;;;;;5035082;28;20176;-36
2022/11/08 10:01:28;;;;;;;45.33;30.67;;;;;;;;;;5030843;28;20171;-36
2022/11/08 10:03:57;;;;;;;41.37;29.87;;;;;;;;;;5026769;28;20596;-36
2022/11/08 10:06:26;;;;;;;37.63;28.37;;;;;;;;;;5029469;28;20182;-36
2022/11/08 10:08:57;;;;;;;38.53;29.07;;;;;;;;;;5033689;28;20195;-36
2022/11/08 10:11:29;;;;;;;35.47;28.27;;;;;;;;;;5030041;28;20175;-36
2022/11/08 10:14:18;;;;;;;38.40;28.83;;;;;;;;;;5029736;28;21044;-36
2022/11/08 10:17:00;;;;;;;39.23;28.30;;;;;;;;;;5026875;28;20577;-36
2022/11/08 10:19:33;;;;;;;39.60;27.00;;;;;;;;;;5033612;28;20278;-36
2022/11/08 10:22:03;;;;;;;39.23;27.63;;;;;;;;;;5031721;28;20183;-36
2022/11/08 10:24:29;;;;;;;35.27;27.63;;;;;;;;;;5033181;28;20826;-36
2022/11/08 10:26:57;;;;;;;38.17;28.17;;;;;;;;;;5029614;28;20906;-35
2022/11/08 10:29:26;;;;;;;42.67;28.63;;;;;;;;;;5028452;28;20211;-36
2022/11/08 10:31:57;;;;;;;39.00;28.20;;;;;;;;;;5033255;28;20451;-37
2022/11/08 10:34:26;;;;;;;37.20;28.30;;;;;;;;;;5031414;28;20676;-36
2022/11/08 10:36:53;;;;;;;39.50;27.43;;;;;;;;;;5029101;28;20199;-37
2022/11/08 10:39:22;;;;;;;38.27;27.40;;;;;;;;;;5027648;28;20183;-37
2022/11/08 10:42:03;;;;;;;35.40;28.00;;;;;;;;;;5030458;28;20458;-36
2022/11/08 10:44:30;;;;;;;37.97;26.87;;;;;;;;;;5033081;28;20179;-36
2022/11/08 10:46:56;;;;;;;39.57;28.53;;;;;;;;;;5029166;28;20187;-37
2022/11/08 10:49:25;;;;;;;45.13;30.40;;;;;;;;;;5029392;28;20203;-36
2022/11/08 10:51:53;;;;;;;40.07;29.97;;;;;;;;;;5032091;28;20253;-36
2022/11/08 10:54:38;;;;;;;41.87;29.37;;;;;;;;;;5014459;28;20210;-36
2022/11/08 10:57:05;;;;;;;44.00;31.27;;;;;;;;;;5034303;28;20643;-37
2022/11/08 10:59:31;;;;;;;41.27;29.87;;;;;;;;;;5033232;28;20176;-36
2022/11/08 11:01:58;;;;;;;42.13;31.73;;;;;;;;;;5028893;28;20654;-36
2022/11/08 11:04:26;;;;;;;43.67;31.63;;;;;;;;;;5030654;28;20614;-36
2022/11/08 11:06:52;;;;;;;44.10;31.33;;;;;;;;;;5029312;28;20175;-36
2022/11/08 11:09:19;;;;;;;40.83;30.53;;;;;;;;;;5032122;28;20765;-36
2022/11/08 11:11:45;;;;;;;44.13;31.70;;;;;;;;;;5031128;28;20228;-36
2022/11/08 11:14:13;;;;;;;46.60;31.90;;;;;;;;;;5029737;28;20175;-37
2022/11/08 11:16:50;;;;;;;41.07;31.73;;;;;;;;;;5030746;28;20182;-36
2022/11/08 11:19:16;;;;;;;43.43;30.50;;;;;;;;;;5031926;28;20175;-36
2022/11/08 11:21:43;;;;;;;43.37;31.97;;;;;;;;;;5031692;28;20675;-37
2022/11/08 11:24:17;;;;;;;40.80;30.80;;;;;;;;;;5033670;28;20184;-36
2022/11/08 11:26:46;;;;;;;43.23;30.77;;;;;;;;;;5032770;28;20486;-36
2022/11/08 11:29:31;;;;;;;44.23;30.67;;;;;;;;;;5031163;28;20196;-37
2022/11/08 11:31:58;;;;;;;41.77;30.23;;;;;;;;;;5032630;28;20643;-37
2022/11/08 11:34:47;;;;;;;43.70;30.60;;;;;;;;;;5034011;28;20182;-36
2022/11/08 11:37:22;;;;;;;43.50;31.23;;;;;;;;;;5036949;28;20179;-36
2022/11/08 11:39:54;;;;;;;42.30;31.73;;;;;;;;;;5035550;28;20191;-37
2022/11/08 11:42:39;;;;;;;44.77;32.50;;;;;;;;;;5031058;28;20190;-36
2022/11/08 11:45:05;;;;;;;48.37;34.20;;;;;;;;;;5032143;28;20187;-37
2022/11/08 11:48:00;;;;;;;44.20;32.37;;;;;;;;;;5034088;28;20490;-36
2022/11/08 11:50:26;;;;;;;52.70;37.27;;;;;;;;;;5021674;28;20550;-37
2022/11/08 11:52:54;;;;;;;47.13;33.90;;;;;;;;;;5034395;28;20171;-36
2022/11/08 11:55:23;;;;;;;50.97;36.00;;;;;;;;;;5034002;28;20167;-36
2022/11/08 11:58:18;;;;;;;49.30;36.47;;;;;;;;;;5032629;28;20183;-36
2022/11/08 12:00:50;;;;;;;48.90;34.87;;;;;;;;;;5016755;28;20183;-37
2022/11/08 12:03:16;;;;;;;47.57;34.10;;;;;;;;;;5034457;28;20475;-36
2022/11/08 12:06:01;;;;;;;53.97;36.47;;;;;;;;;;5035843;28;20176;-37
2022/11/08 12:08:46;;;;;;;54.03;37.03;;;;;;;;;;5036611;28;20250;-37
2022/11/08 12:11:34;;;;;;;54.60;36.63;;;;;;;;;;5035540;28;20199;-36
2022/11/08 12:14:07;;;;;;;46.17;35.30;;;;;;;;;;5035399;28;20719;-36
2022/11/08 12:16:41;;;;;;;49.07;36.83;;;;;;;;;;5033505;28;20186;-38
2022/11/08 12:19:13;;;;;;;50.20;36.13;;;;;;;;;;5032643;28;20214;-37
2022/11/08 12:21:43;;;;;;;47.47;36.23;;;;;;;;;;5026741;28;20616;-37
2022/11/08 12:24:15;;;;;;;47.13;36.07;;;;;;;;;;5032471;28;20442;-37
2022/11/08 12:26:49;;;;;;;52.20;35.77;;;;;;;;;;5034846;28;20188;-37
2022/11/08 12:29:33;;;;;;;52.47;38.90;;;;;;;;;;5031897;28;20298;-38
2022/11/08 12:32:09;;;;;;;51.13;36.40;;;;;;;;;;5030676;28;20602;-38
2022/11/08 12:34:38;;;;;;;47.27;35.80;;;;;;;;;;5031773;28;20175;-37
2022/11/08 12:37:10;;;;;;;49.20;36.23;;;;;;;;;;5034789;28;20415;-37
2022/11/08 12:40:06;;;;;;;52.20;38.13;;;;;;;;;;5034110;28;20278;-37
2022/11/08 12:42:50;;;;;;;47.60;35.90;;;;;;;;;;4966819;28;20642;-37
2022/11/08 12:45:35;;;;;;;45.63;34.43;;;;;;;;;;5030469;28;20707;-37
2022/11/08 12:48:05;;;;;;;47.80;35.33;;;;;;;;;;5031727;28;20175;-38
2022/11/08 12:50:34;;;;;;;49.97;35.63;;;;;;;;;;5034079;28;20171;-37
2022/11/08 12:53:03;;;;;;;45.87;33.30;;;;;;;;;;5033085;28;20172;-36
2022/11/08 12:55:32;;;;;;;46.90;33.77;;;;;;;;;;5032033;28;20509;-37
2022/11/08 12:58:01;;;;;;;44.07;32.80;;;;;;;;;;5030305;28;20184;-37
2022/11/08 13:00:27;;;;;;;47.23;34.80;;;;;;;;;;5029718;28;20218;-36
2022/11/08 13:03:09;;;;;;;47.40;34.70;;;;;;;;;;5034172;28;20649;-37
2022/11/08 13:05:41;;;;;;;50.40;34.27;;;;;;;;;;5031461;28;20172;-37
2022/11/08 13:08:26;;;;;;;47.50;35.43;;;;;;;;;;5032263;28;20237;-36
2022/11/08 13:10:56;;;;;;;44.57;33.43;;;;;;;;;;5032330;28;20186;-37
2022/11/08 13:13:31;;;;;;;44.33;31.77;;;;;;;;;;5034894;28;20572;-37
2022/11/08 13:16:13;;;;;;;44.83;31.37;;;;;;;;;;5031321;28;20175;-37
2022/11/08 13:18:47;;;;;;;45.33;32.93;;;;;;;;;;5031697;28;20955;-37
2022/11/08 13:21:25;;;;;;;45.77;33.67;;;;;;;;;;5031088;28;20841;-37
2022/11/08 13:23:51;;;;;;;43.97;32.23;;;;;;;;;;5031070;28;20192;-36
2022/11/08 13:26:22;;;;;;;45.57;33.53;;;;;;;;;;5032653;28;20207;-37
2022/11/08 13:28:48;;;;;;;45.83;33.40;;;;;;;;;;5035192;28;20847;-36
2022/11/08 13:31:27;;;;;;;48.07;34.17;;;;;;;;;;5030292;28;20176;-36
2022/11/08 13:34:01;;;;;;;49.63;35.03;;;;;;;;;;5030094;28;20546;-36
2022/11/08 13:36:30;;;;;;;50.90;33.80;;;;;;;;;;5030429;28;20217;-36
2022/11/08 13:39:12;;;;;;;44.87;32.23;;;;;;;;;;5031784;28;20804;-36
2022/11/08 13:41:57;;;;;;;43.37;32.03;;;;;;;;;;5035329;28;20452;-37
2022/11/08 13:44:41;;;;;;;46.17;32.67;;;;;;;;;;5031483;28;20271;-37
2022/11/08 13:47:27;;;;;;;43.77;32.73;;;;;;;;;;5028915;28;20914;-37
2022/11/08 13:50:13;;;;;;;44.00;31.53;;;;;;;;;;5012817;28;20199;-37
2022/11/08 13:52:46;;;;;;;47.87;32.00;;;;;;;;;;5031168;28;20722;-37
2022/11/08 13:55:36;;;;;;;42.83;30.23;;;;;;;;;;5026746;28;20405;-37
2022/11/08 13:58:02;;;;;;;41.10;31.07;;;;;;;;;;5021955;28;20220;-37
2022/11/08 14:00:45;;;;;;;44.27;30.93;;;;;;;;;;5028262;28;20275;-38
2022/11/08 14:03:30;;;;;;;41.13;31.17;;;;;;;;;;5027617;28;20198;-38
2022/11/08 14:05:56;;;;;;;44.30;32.23;;;;;;;;;;5029468;28;20518;-38
2022/11/08 14:08:23;;;;;;;44.40;32.73;;;;;;;;;;5030901;28;20203;-38
2022/11/08 14:10:52;;;;;;;48.17;33.80;;;;;;;;;;5004765;28;20176;-38
2022/11/08 14:13:33;;;;;;;45.17;31.57;;;;;;;;;;5031056;28;20862;-37
2022/11/08 14:16:02;;;;;;;44.47;32.80;;;;;;;;;;5029322;28;20722;-38
2022/11/08 14:18:30;;;;;;;46.83;32.63;;;;;;;;;;5028805;28;20282;-37
2022/11/08 14:20:56;;;;;;;47.37;33.87;;;;;;;;;;5030038;28;20496;-37
2022/11/08 14:23:26;;;;;;;47.77;33.70;;;;;;;;;;5033025;28;20180;-37
2022/11/08 14:25:56;;;;;;;45.17;32.30;;;;;;;;;;5031078;28;20716;-38
2022/11/08 14:28:23;;;;;;;46.33;32.77;;;;;;;;;;5034779;28;20235;-37
2022/11/08 14:30:50;;;;;;;43.17;31.67;;;;;;;;;;5031813;28;20168;-36
2022/11/08 14:33:18;;;;;;;46.90;33.33;;;;;;;;;;5029879;28;20627;-36
2022/11/08 14:36:07;;;;;;;49.03;34.07;;;;;;;;;;5028503;28;20183;-35
2022/11/08 14:38:37;;;;;;;50.97;33.80;;;;;;;;;;5025758;28;20187;-36
2022/11/08 14:41:05;;;;;;;47.33;34.63;;;;;;;;;;5031786;28;20188;-35
2022/11/08 14:43:34;;;;;;;46.23;32.20;;;;;;;;;;5031711;28;20182;-36
2022/11/08 14:46:09;;;;;;;45.93;31.90;;;;;;;;;;5029329;28;20218;-36
2022/11/08 14:48:35;;;;;;;45.73;32.60;;;;;;;;;;5028268;28;20284;-36
2022/11/08 14:51:03;;;;;;;50.87;34.57;;;;;;;;;;5029960;28;20187;-36